sensor_id;sensor_type;location;lat;lon;timestamp;P1;durP1;ratioP1;P2;durP2;ratioP2
29902;SDS011;30288;50.514;9.678;2024-03-02T00:00:18;51.17;;;30.02;;
29902;SDS011;30288;50.514;9.678;2024-03-02T00:02:26;48.90;;;27.05;;
29902;SDS011;30288;50.514;9.678;2024-03-02T00:04:34;48.35;;;29.00;;
29902;SDS011;30288;50.514;9.678;2024-03-02T00:06:40;51.78;;;29.05;;
29902;SDS011;30288;50.514;9.678;2024-03-02T00:08:48;58.75;;;31.98;;
29902;SDS011;30288;50.514;9.678;2024-03-02T00:10:57;56.70;;;31.85;;
29902;SDS011;30288;50.514;9.678;2024-03-02T00:13:04;52.95;;;30.85;;
29902;SDS011;30288;50.514;9.678;2024-03-02T00:15:20;52.85;;;29.25;;
29902;SDS011;30288;50.514;9.678;2024-03-02T00:17:44;54.83;;;31.42;;
29902;SDS011;30288;50.514;9.678;2024-03-02T00:19:51;55.58;;;29.25;;
29902;SDS011;30288;50.514;9.678;2024-03-02T00:21:59;60.63;;;33.20;;
29902;SDS011;30288;50.514;9.678;2024-03-02T00:24:12;56.10;;;31.40;;
29902;SDS011;30288;50.514;9.678;2024-03-02T00:26:26;65.57;;;35.25;;
29902;SDS011;30288;50.514;9.678;2024-03-02T00:28:31;58.55;;;33.63;;
29902;SDS011;30288;50.514;9.678;2024-03-02T00:30:44;56.63;;;31.70;;
29902;SDS011;30288;50.514;9.678;2024-03-02T00:33:05;62.95;;;32.10;;
29902;SDS011;30288;50.514;9.678;2024-03-02T00:35:08;60.35;;;33.92;;
29902;SDS011;30288;50.514;9.678;2024-03-02T00:37:14;65.25;;;34.25;;
29902;SDS011;30288;50.514;9.678;2024-03-02T00:39:22;53.65;;;30.92;;
29902;SDS011;30288;50.514;9.678;2024-03-02T00:41:30;60.13;;;33.05;;
29902;SDS011;30288;50.514;9.678;2024-03-02T00:43:41;48.67;;;29.73;;
29902;SDS011;30288;50.514;9.678;2024-03-02T00:46:02;51.92;;;30.38;;
29902;SDS011;30288;50.514;9.678;2024-03-02T00:48:06;56.33;;;32.08;;
29902;SDS011;30288;50.514;9.678;2024-03-02T00:50:13;64.78;;;33.88;;
29902;SDS011;30288;50.514;9.678;2024-03-02T00:52:30;55.25;;;32.35;;
29902;SDS011;30288;50.514;9.678;2024-03-02T00:54:39;52.75;;;30.10;;
29902;SDS011;30288;50.514;9.678;2024-03-02T00:56:46;55.75;;;31.77;;
29902;SDS011;30288;50.514;9.678;2024-03-02T00:58:52;50.45;;;30.20;;
29902;SDS011;30288;50.514;9.678;2024-03-02T01:00:58;53.40;;;30.75;;
29902;SDS011;30288;50.514;9.678;2024-03-02T01:03:01;59.08;;;32.10;;
29902;SDS011;30288;50.514;9.678;2024-03-02T01:05:07;61.30;;;32.80;;
29902;SDS011;30288;50.514;9.678;2024-03-02T01:07:12;57.22;;;32.15;;
29902;SDS011;30288;50.514;9.678;2024-03-02T01:09:20;54.22;;;29.75;;
29902;SDS011;30288;50.514;9.678;2024-03-02T01:11:29;55.95;;;31.45;;
29902;SDS011;30288;50.514;9.678;2024-03-02T01:13:35;56.67;;;30.42;;
29902;SDS011;30288;50.514;9.678;2024-03-02T01:15:37;58.50;;;32.50;;
29902;SDS011;30288;50.514;9.678;2024-03-02T01:17:45;56.70;;;31.00;;
29902;SDS011;30288;50.514;9.678;2024-03-02T01:19:54;65.53;;;32.53;;
29902;SDS011;30288;50.514;9.678;2024-03-02T01:22:00;56.72;;;30.52;;
29902;SDS011;30288;50.514;9.678;2024-03-02T01:24:07;52.13;;;30.02;;
29902;SDS011;30288;50.514;9.678;2024-03-02T01:26:15;55.88;;;29.70;;
29902;SDS011;30288;50.514;9.678;2024-03-02T01:28:23;55.03;;;29.65;;
29902;SDS011;30288;50.514;9.678;2024-03-02T01:30:29;55.17;;;30.33;;
29902;SDS011;30288;50.514;9.678;2024-03-02T01:32:37;52.50;;;29.48;;
29902;SDS011;30288;50.514;9.678;2024-03-02T01:34:43;54.70;;;29.38;;
29902;SDS011;30288;50.514;9.678;2024-03-02T01:36:48;50.80;;;29.30;;
29902;SDS011;30288;50.514;9.678;2024-03-02T01:38:54;52.78;;;28.30;;
29902;SDS011;30288;50.514;9.678;2024-03-02T01:41:00;50.05;;;27.25;;
29902;SDS011;30288;50.514;9.678;2024-03-02T01:43:07;49.80;;;27.83;;
29902;SDS011;30288;50.514;9.678;2024-03-02T01:45:16;48.88;;;27.17;;
29902;SDS011;30288;50.514;9.678;2024-03-02T01:47:19;45.00;;;27.77;;
29902;SDS011;30288;50.514;9.678;2024-03-02T01:49:25;49.78;;;27.85;;
29902;SDS011;30288;50.514;9.678;2024-03-02T01:51:31;45.72;;;25.75;;
29902;SDS011;30288;50.514;9.678;2024-03-02T01:53:37;46.65;;;26.30;;
29902;SDS011;30288;50.514;9.678;2024-03-02T01:55:44;47.85;;;26.52;;
29902;SDS011;30288;50.514;9.678;2024-03-02T01:57:49;48.35;;;27.13;;
29902;SDS011;30288;50.514;9.678;2024-03-02T01:59:59;49.28;;;27.25;;
29902;SDS011;30288;50.514;9.678;2024-03-02T02:02:14;49.08;;;28.35;;
29902;SDS011;30288;50.514;9.678;2024-03-02T02:04:20;48.00;;;27.70;;
29902;SDS011;30288;50.514;9.678;2024-03-02T02:06:29;44.15;;;27.52;;
29902;SDS011;30288;50.514;9.678;2024-03-02T02:08:36;45.08;;;26.27;;
29902;SDS011;30288;50.514;9.678;2024-03-02T02:10:42;48.58;;;26.65;;
29902;SDS011;30288;50.514;9.678;2024-03-02T02:12:51;48.53;;;26.73;;
29902;SDS011;30288;50.514;9.678;2024-03-02T02:14:57;50.45;;;25.98;;
29902;SDS011;30288;50.514;9.678;2024-03-02T02:17:03;46.95;;;26.52;;
29902;SDS011;30288;50.514;9.678;2024-03-02T02:19:12;43.95;;;24.88;;
29902;SDS011;30288;50.514;9.678;2024-03-02T02:23:29;41.45;;;24.48;;
29902;SDS011;30288;50.514;9.678;2024-03-02T02:25:40;47.97;;;27.90;;
29902;SDS011;30288;50.514;9.678;2024-03-02T02:27:48;46.35;;;27.50;;
29902;SDS011;30288;50.514;9.678;2024-03-02T02:29:56;47.03;;;26.77;;
29902;SDS011;30288;50.514;9.678;2024-03-02T02:34:04;44.92;;;24.92;;
29902;SDS011;30288;50.514;9.678;2024-03-02T02:36:11;41.65;;;23.63;;
29902;SDS011;30288;50.514;9.678;2024-03-02T02:38:19;47.72;;;25.95;;
29902;SDS011;30288;50.514;9.678;2024-03-02T02:40:25;49.60;;;27.50;;
29902;SDS011;30288;50.514;9.678;2024-03-02T02:42:32;48.08;;;25.88;;
29902;SDS011;30288;50.514;9.678;2024-03-02T02:44:34;46.80;;;27.08;;
29902;SDS011;30288;50.514;9.678;2024-03-02T02:46:40;49.10;;;26.45;;
29902;SDS011;30288;50.514;9.678;2024-03-02T02:48:45;42.33;;;24.58;;
29902;SDS011;30288;50.514;9.678;2024-03-02T02:50:49;53.70;;;29.83;;
29902;SDS011;30288;50.514;9.678;2024-03-02T02:52:54;55.22;;;30.13;;
29902;SDS011;30288;50.514;9.678;2024-03-02T02:55:03;57.50;;;30.52;;
29902;SDS011;30288;50.514;9.678;2024-03-02T02:57:09;64.07;;;32.47;;
29902;SDS011;30288;50.514;9.678;2024-03-02T03:01:17;52.45;;;25.42;;
29902;SDS011;30288;50.514;9.678;2024-03-02T03:03:23;45.50;;;24.85;;
29902;SDS011;30288;50.514;9.678;2024-03-02T03:05:28;44.53;;;24.02;;
29902;SDS011;30288;50.514;9.678;2024-03-02T03:07:37;52.53;;;26.90;;
29902;SDS011;30288;50.514;9.678;2024-03-02T03:09:42;45.90;;;25.30;;
29902;SDS011;30288;50.514;9.678;2024-03-02T03:11:50;42.55;;;23.35;;
29902;SDS011;30288;50.514;9.678;2024-03-02T03:13:56;52.83;;;26.33;;
29902;SDS011;30288;50.514;9.678;2024-03-02T03:16:03;54.00;;;27.88;;
29902;SDS011;30288;50.514;9.678;2024-03-02T03:18:10;52.75;;;26.90;;
29902;SDS011;30288;50.514;9.678;2024-03-02T03:20:16;77.38;;;25.10;;
29902;SDS011;30288;50.514;9.678;2024-03-02T03:24:25;47.65;;;25.83;;
29902;SDS011;30288;50.514;9.678;2024-03-02T03:26:30;53.88;;;27.65;;
29902;SDS011;30288;50.514;9.678;2024-03-02T03:28:39;60.78;;;29.65;;
29902;SDS011;30288;50.514;9.678;2024-03-02T03:30:44;53.97;;;28.77;;
29902;SDS011;30288;50.514;9.678;2024-03-02T03:32:50;61.13;;;29.63;;
29902;SDS011;30288;50.514;9.678;2024-03-02T03:34:56;65.97;;;32.75;;
29902;SDS011;30288;50.514;9.678;2024-03-02T03:37:01;77.22;;;35.10;;
29902;SDS011;30288;50.514;9.678;2024-03-02T03:39:07;75.07;;;35.47;;
29902;SDS011;30288;50.514;9.678;2024-03-02T03:41:12;74.60;;;34.00;;
29902;SDS011;30288;50.514;9.678;2024-03-02T03:43:18;60.80;;;31.85;;
29902;SDS011;30288;50.514;9.678;2024-03-02T03:45:27;71.68;;;34.13;;
29902;SDS011;30288;50.514;9.678;2024-03-02T03:47:34;77.72;;;34.92;;
29902;SDS011;30288;50.514;9.678;2024-03-02T03:49:39;76.93;;;34.17;;
29902;SDS011;30288;50.514;9.678;2024-03-02T03:51:45;79.03;;;34.13;;
29902;SDS011;30288;50.514;9.678;2024-03-02T03:53:48;84.78;;;37.45;;
29902;SDS011;30288;50.514;9.678;2024-03-02T03:55:54;85.68;;;36.03;;
29902;SDS011;30288;50.514;9.678;2024-03-02T03:58:00;91.18;;;37.50;;
29902;SDS011;30288;50.514;9.678;2024-03-02T04:00:06;88.82;;;37.05;;
29902;SDS011;30288;50.514;9.678;2024-03-02T04:02:17;77.93;;;36.63;;
29902;SDS011;30288;50.514;9.678;2024-03-02T04:04:21;91.32;;;33.45;;
29902;SDS011;30288;50.514;9.678;2024-03-02T04:06:29;169.48;;;28.75;;
29902;SDS011;30288;50.514;9.678;2024-03-02T04:08:33;61.25;;;27.70;;
29902;SDS011;30288;50.514;9.678;2024-03-02T04:10:38;60.22;;;28.92;;
29902;SDS011;30288;50.514;9.678;2024-03-02T04:12:44;64.60;;;31.00;;
29902;SDS011;30288;50.514;9.678;2024-03-02T04:14:50;72.72;;;32.60;;
29902;SDS011;30288;50.514;9.678;2024-03-02T04:16:53;62.40;;;29.67;;
29902;SDS011;30288;50.514;9.678;2024-03-02T04:19:03;68.20;;;31.80;;
29902;SDS011;30288;50.514;9.678;2024-03-02T04:21:09;67.18;;;31.33;;
29902;SDS011;30288;50.514;9.678;2024-03-02T04:23:14;66.32;;;32.50;;
29902;SDS011;30288;50.514;9.678;2024-03-02T04:25:19;79.18;;;34.17;;
29902;SDS011;30288;50.514;9.678;2024-03-02T04:27:25;88.65;;;35.75;;
29902;SDS011;30288;50.514;9.678;2024-03-02T04:29:28;88.45;;;37.88;;
29902;SDS011;30288;50.514;9.678;2024-03-02T04:31:33;86.72;;;36.65;;
29902;SDS011;30288;50.514;9.678;2024-03-02T04:33:39;91.40;;;39.25;;
29902;SDS011;30288;50.514;9.678;2024-03-02T04:35:44;89.50;;;38.58;;
29902;SDS011;30288;50.514;9.678;2024-03-02T04:37:50;96.88;;;40.95;;
29902;SDS011;30288;50.514;9.678;2024-03-02T04:39:55;95.88;;;38.90;;
29902;SDS011;30288;50.514;9.678;2024-03-02T04:42:01;101.00;;;42.67;;
29902;SDS011;30288;50.514;9.678;2024-03-02T04:44:04;113.40;;;45.45;;
29902;SDS011;30288;50.514;9.678;2024-03-02T04:46:10;104.03;;;44.78;;
29902;SDS011;30288;50.514;9.678;2024-03-02T04:48:16;106.70;;;42.08;;
29902;SDS011;30288;50.514;9.678;2024-03-02T04:50:21;105.20;;;41.38;;
29902;SDS011;30288;50.514;9.678;2024-03-02T04:52:29;104.05;;;42.72;;
29902;SDS011;30288;50.514;9.678;2024-03-02T04:54:34;100.90;;;41.58;;
29902;SDS011;30288;50.514;9.678;2024-03-02T04:57:01;105.03;;;42.35;;
29902;SDS011;30288;50.514;9.678;2024-03-02T04:59:04;102.18;;;42.72;;
29902;SDS011;30288;50.514;9.678;2024-03-02T05:01:10;109.47;;;43.88;;
29902;SDS011;30288;50.514;9.678;2024-03-02T05:03:19;106.35;;;44.58;;
29902;SDS011;30288;50.514;9.678;2024-03-02T05:05:24;103.65;;;43.90;;
29902;SDS011;30288;50.514;9.678;2024-03-02T05:07:32;104.68;;;43.03;;
29902;SDS011;30288;50.514;9.678;2024-03-02T05:09:40;110.53;;;44.22;;
29902;SDS011;30288;50.514;9.678;2024-03-02T05:11:45;108.88;;;44.88;;
29902;SDS011;30288;50.514;9.678;2024-03-02T05:14:04;108.07;;;44.55;;
29902;SDS011;30288;50.514;9.678;2024-03-02T05:16:10;109.88;;;44.92;;
29902;SDS011;30288;50.514;9.678;2024-03-02T05:18:15;113.05;;;46.30;;
29902;SDS011;30288;50.514;9.678;2024-03-02T05:20:21;109.68;;;45.85;;
29902;SDS011;30288;50.514;9.678;2024-03-02T05:22:27;120.20;;;46.42;;
29902;SDS011;30288;50.514;9.678;2024-03-02T05:24:35;114.60;;;48.10;;
29902;SDS011;30288;50.514;9.678;2024-03-02T05:26:40;110.93;;;46.45;;
29902;SDS011;30288;50.514;9.678;2024-03-02T05:28:44;118.60;;;49.45;;
29902;SDS011;30288;50.514;9.678;2024-03-02T05:30:49;105.88;;;45.05;;
29902;SDS011;30288;50.514;9.678;2024-03-02T05:32:56;106.72;;;44.47;;
29902;SDS011;30288;50.514;9.678;2024-03-02T05:35:03;105.65;;;43.92;;
29902;SDS011;30288;50.514;9.678;2024-03-02T05:37:14;114.13;;;44.53;;
29902;SDS011;30288;50.514;9.678;2024-03-02T05:39:20;108.22;;;44.67;;
29902;SDS011;30288;50.514;9.678;2024-03-02T05:41:28;103.93;;;45.47;;
29902;SDS011;30288;50.514;9.678;2024-03-02T05:43:34;113.35;;;45.70;;
29902;SDS011;30288;50.514;9.678;2024-03-02T05:45:39;112.38;;;44.78;;
29902;SDS011;30288;50.514;9.678;2024-03-02T05:47:46;107.18;;;45.83;;
29902;SDS011;30288;50.514;9.678;2024-03-02T05:49:51;100.85;;;44.30;;
29902;SDS011;30288;50.514;9.678;2024-03-02T05:51:57;103.63;;;45.55;;
29902;SDS011;30288;50.514;9.678;2024-03-02T05:54:02;99.80;;;44.63;;
29902;SDS011;30288;50.514;9.678;2024-03-02T05:56:08;109.60;;;44.55;;
29902;SDS011;30288;50.514;9.678;2024-03-02T05:58:14;109.18;;;44.95;;
29902;SDS011;30288;50.514;9.678;2024-03-02T06:00:29;100.28;;;41.92;;
29902;SDS011;30288;50.514;9.678;2024-03-02T06:02:34;104.03;;;43.42;;
29902;SDS011;30288;50.514;9.678;2024-03-02T06:04:40;103.75;;;42.88;;
29902;SDS011;30288;50.514;9.678;2024-03-02T06:06:47;97.68;;;42.13;;
29902;SDS011;30288;50.514;9.678;2024-03-02T06:08:56;102.15;;;43.30;;
29902;SDS011;30288;50.514;9.678;2024-03-02T06:11:02;106.60;;;47.28;;
29902;SDS011;30288;50.514;9.678;2024-03-02T06:13:08;101.53;;;43.70;;
29902;SDS011;30288;50.514;9.678;2024-03-02T06:15:16;99.63;;;42.13;;
29902;SDS011;30288;50.514;9.678;2024-03-02T06:17:21;95.43;;;42.60;;
29902;SDS011;30288;50.514;9.678;2024-03-02T06:19:27;95.93;;;42.72;;
29902;SDS011;30288;50.514;9.678;2024-03-02T06:21:33;99.13;;;42.45;;
29902;SDS011;30288;50.514;9.678;2024-03-02T06:23:38;100.25;;;42.47;;
29902;SDS011;30288;50.514;9.678;2024-03-02T06:25:41;101.22;;;45.80;;
29902;SDS011;30288;50.514;9.678;2024-03-02T06:27:49;94.88;;;42.13;;
29902;SDS011;30288;50.514;9.678;2024-03-02T06:29:55;102.22;;;44.83;;
29902;SDS011;30288;50.514;9.678;2024-03-02T06:32:04;92.82;;;42.63;;
29902;SDS011;30288;50.514;9.678;2024-03-02T06:34:10;96.93;;;43.40;;
29902;SDS011;30288;50.514;9.678;2024-03-02T06:36:16;99.25;;;43.58;;
29902;SDS011;30288;50.514;9.678;2024-03-02T06:38:24;103.60;;;45.25;;
29902;SDS011;30288;50.514;9.678;2024-03-02T06:40:27;97.88;;;42.15;;
29902;SDS011;30288;50.514;9.678;2024-03-02T06:42:33;98.30;;;41.85;;
29902;SDS011;30288;50.514;9.678;2024-03-02T06:44:36;90.43;;;43.22;;
29902;SDS011;30288;50.514;9.678;2024-03-02T06:46:41;96.45;;;43.17;;
29902;SDS011;30288;50.514;9.678;2024-03-02T06:48:49;98.65;;;44.22;;
29902;SDS011;30288;50.514;9.678;2024-03-02T06:50:54;91.18;;;44.08;;
29902;SDS011;30288;50.514;9.678;2024-03-02T06:53:00;91.85;;;44.45;;
29902;SDS011;30288;50.514;9.678;2024-03-02T06:55:07;96.28;;;45.25;;
29902;SDS011;30288;50.514;9.678;2024-03-02T06:57:10;87.72;;;41.72;;
29902;SDS011;30288;50.514;9.678;2024-03-02T06:59:18;96.15;;;43.47;;
29902;SDS011;30288;50.514;9.678;2024-03-02T07:01:24;94.32;;;42.30;;
29902;SDS011;30288;50.514;9.678;2024-03-02T07:03:30;88.38;;;41.10;;
29902;SDS011;30288;50.514;9.678;2024-03-02T07:05:37;84.55;;;41.53;;
29902;SDS011;30288;50.514;9.678;2024-03-02T07:07:45;82.72;;;41.55;;
29902;SDS011;30288;50.514;9.678;2024-03-02T07:09:51;82.70;;;40.38;;
29902;SDS011;30288;50.514;9.678;2024-03-02T07:11:56;79.00;;;40.78;;
29902;SDS011;30288;50.514;9.678;2024-03-02T07:13:59;81.15;;;39.33;;
29902;SDS011;30288;50.514;9.678;2024-03-02T07:16:05;82.57;;;41.65;;
29902;SDS011;30288;50.514;9.678;2024-03-02T07:18:26;77.05;;;38.60;;
29902;SDS011;30288;50.514;9.678;2024-03-02T07:20:32;75.00;;;38.88;;
29902;SDS011;30288;50.514;9.678;2024-03-02T07:22:39;69.93;;;38.58;;
29902;SDS011;30288;50.514;9.678;2024-03-02T07:24:45;69.80;;;37.30;;
29902;SDS011;30288;50.514;9.678;2024-03-02T07:26:51;62.72;;;36.13;;
29902;SDS011;30288;50.514;9.678;2024-03-02T07:28:56;58.30;;;34.70;;
29902;SDS011;30288;50.514;9.678;2024-03-02T07:31:03;61.10;;;36.15;;
29902;SDS011;30288;50.514;9.678;2024-03-02T07:33:09;55.42;;;32.97;;
29902;SDS011;30288;50.514;9.678;2024-03-02T07:35:15;57.35;;;34.15;;
29902;SDS011;30288;50.514;9.678;2024-03-02T07:37:20;55.42;;;32.78;;
29902;SDS011;30288;50.514;9.678;2024-03-02T07:39:28;49.92;;;31.48;;
29902;SDS011;30288;50.514;9.678;2024-03-02T07:41:34;47.60;;;29.65;;
29902;SDS011;30288;50.514;9.678;2024-03-02T07:43:43;49.80;;;30.58;;
29902;SDS011;30288;50.514;9.678;2024-03-02T07:45:50;49.22;;;29.35;;
29902;SDS011;30288;50.514;9.678;2024-03-02T07:47:55;41.90;;;27.23;;
29902;SDS011;30288;50.514;9.678;2024-03-02T07:50:01;39.60;;;26.75;;
29902;SDS011;30288;50.514;9.678;2024-03-02T07:52:07;37.83;;;24.95;;
29902;SDS011;30288;50.514;9.678;2024-03-02T07:54:12;43.53;;;28.17;;
29902;SDS011;30288;50.514;9.678;2024-03-02T07:56:20;39.83;;;25.73;;
29902;SDS011;30288;50.514;9.678;2024-03-02T07:58:26;36.20;;;24.73;;
29902;SDS011;30288;50.514;9.678;2024-03-02T08:00:32;38.47;;;24.75;;
29902;SDS011;30288;50.514;9.678;2024-03-02T08:02:38;34.28;;;22.95;;
29902;SDS011;30288;50.514;9.678;2024-03-02T08:04:44;30.50;;;21.55;;
29902;SDS011;30288;50.514;9.678;2024-03-02T08:06:52;32.20;;;22.55;;
29902;SDS011;30288;50.514;9.678;2024-03-02T08:08:57;29.52;;;21.20;;
29902;SDS011;30288;50.514;9.678;2024-03-02T08:11:06;33.03;;;21.70;;
29902;SDS011;30288;50.514;9.678;2024-03-02T08:13:15;29.60;;;20.88;;
29902;SDS011;30288;50.514;9.678;2024-03-02T08:15:21;31.58;;;21.27;;
29902;SDS011;30288;50.514;9.678;2024-03-02T08:17:26;29.95;;;19.67;;
29902;SDS011;30288;50.514;9.678;2024-03-02T08:19:35;28.48;;;19.33;;
29902;SDS011;30288;50.514;9.678;2024-03-02T08:21:41;29.98;;;19.83;;
29902;SDS011;30288;50.514;9.678;2024-03-02T08:23:48;31.00;;;20.50;;
29902;SDS011;30288;50.514;9.678;2024-03-02T08:25:53;27.77;;;19.30;;
29902;SDS011;30288;50.514;9.678;2024-03-02T08:27:59;27.45;;;18.20;;
29902;SDS011;30288;50.514;9.678;2024-03-02T08:30:08;26.77;;;18.50;;
29902;SDS011;30288;50.514;9.678;2024-03-02T08:32:15;26.85;;;17.88;;
29902;SDS011;30288;50.514;9.678;2024-03-02T08:34:21;27.48;;;18.52;;
29902;SDS011;30288;50.514;9.678;2024-03-02T08:36:26;25.83;;;17.40;;
29902;SDS011;30288;50.514;9.678;2024-03-02T08:38:32;25.83;;;18.50;;
29902;SDS011;30288;50.514;9.678;2024-03-02T08:40:37;24.50;;;17.02;;
29902;SDS011;30288;50.514;9.678;2024-03-02T08:42:42;23.58;;;16.50;;
29902;SDS011;30288;50.514;9.678;2024-03-02T08:44:49;25.35;;;17.52;;
29902;SDS011;30288;50.514;9.678;2024-03-02T08:46:55;23.90;;;16.95;;
29902;SDS011;30288;50.514;9.678;2024-03-02T08:49:01;26.90;;;18.33;;
29902;SDS011;30288;50.514;9.678;2024-03-02T08:53:10;24.85;;;15.75;;
29902;SDS011;30288;50.514;9.678;2024-03-02T08:55:20;26.95;;;17.58;;
29902;SDS011;30288;50.514;9.678;2024-03-02T08:57:26;25.98;;;17.20;;
29902;SDS011;30288;50.514;9.678;2024-03-02T08:59:32;26.98;;;17.60;;
29902;SDS011;30288;50.514;9.678;2024-03-02T09:01:37;21.08;;;15.63;;
29902;SDS011;30288;50.514;9.678;2024-03-02T09:03:46;23.75;;;16.27;;
29902;SDS011;30288;50.514;9.678;2024-03-02T09:05:51;22.85;;;15.95;;
29902;SDS011;30288;50.514;9.678;2024-03-02T09:07:56;27.23;;;17.42;;
29902;SDS011;30288;50.514;9.678;2024-03-02T09:10:01;23.75;;;16.08;;
29902;SDS011;30288;50.514;9.678;2024-03-02T09:12:08;21.92;;;15.77;;
29902;SDS011;30288;50.514;9.678;2024-03-02T09:14:16;24.67;;;15.55;;
29902;SDS011;30288;50.514;9.678;2024-03-02T09:16:21;20.90;;;15.25;;
29902;SDS011;30288;50.514;9.678;2024-03-02T09:18:32;22.05;;;15.43;;
29902;SDS011;30288;50.514;9.678;2024-03-02T09:20:40;24.15;;;16.20;;
29902;SDS011;30288;50.514;9.678;2024-03-02T09:22:46;23.38;;;15.38;;
29902;SDS011;30288;50.514;9.678;2024-03-02T09:24:51;23.50;;;16.10;;
29902;SDS011;30288;50.514;9.678;2024-03-02T09:26:56;20.70;;;14.82;;
29902;SDS011;30288;50.514;9.678;2024-03-02T09:29:01;20.60;;;14.95;;
29902;SDS011;30288;50.514;9.678;2024-03-02T09:31:06;22.98;;;15.40;;
29902;SDS011;30288;50.514;9.678;2024-03-02T09:33:12;21.48;;;15.68;;
29902;SDS011;30288;50.514;9.678;2024-03-02T09:35:18;21.30;;;15.07;;
29902;SDS011;30288;50.514;9.678;2024-03-02T09:37:26;21.23;;;14.90;;
29902;SDS011;30288;50.514;9.678;2024-03-02T09:39:33;21.27;;;14.10;;
29902;SDS011;30288;50.514;9.678;2024-03-02T09:41:39;21.13;;;14.30;;
29902;SDS011;30288;50.514;9.678;2024-03-02T09:43:44;19.38;;;14.10;;
29902;SDS011;30288;50.514;9.678;2024-03-02T09:45:50;19.67;;;14.40;;
29902;SDS011;30288;50.514;9.678;2024-03-02T09:47:58;20.02;;;13.55;;
29902;SDS011;30288;50.514;9.678;2024-03-02T09:50:05;23.10;;;15.10;;
29902;SDS011;30288;50.514;9.678;2024-03-02T09:52:12;19.77;;;14.23;;
29902;SDS011;30288;50.514;9.678;2024-03-02T09:54:21;21.48;;;15.25;;
29902;SDS011;30288;50.514;9.678;2024-03-02T09:56:27;21.42;;;15.27;;
29902;SDS011;30288;50.514;9.678;2024-03-02T09:58:30;21.20;;;14.73;;
29902;SDS011;30288;50.514;9.678;2024-03-02T10:00:37;21.88;;;14.77;;
29902;SDS011;30288;50.514;9.678;2024-03-02T10:02:42;23.30;;;15.57;;
29902;SDS011;30288;50.514;9.678;2024-03-02T10:04:45;22.08;;;15.18;;
29902;SDS011;30288;50.514;9.678;2024-03-02T10:07:08;22.95;;;16.50;;
29902;SDS011;30288;50.514;9.678;2024-03-02T10:09:23;21.10;;;14.77;;
29902;SDS011;30288;50.514;9.678;2024-03-02T10:11:33;20.83;;;15.35;;
29902;SDS011;30288;50.514;9.678;2024-03-02T10:13:42;21.00;;;14.20;;
29902;SDS011;30288;50.514;9.678;2024-03-02T10:15:47;20.45;;;13.95;;
29902;SDS011;30288;50.514;9.678;2024-03-02T10:17:55;22.35;;;15.43;;
29902;SDS011;30288;50.514;9.678;2024-03-02T10:20:05;23.25;;;13.88;;
29902;SDS011;30288;50.514;9.678;2024-03-02T10:22:27;21.40;;;14.02;;
29902;SDS011;30288;50.514;9.678;2024-03-02T10:24:39;18.52;;;13.25;;
29902;SDS011;30288;50.514;9.678;2024-03-02T10:26:47;16.92;;;11.40;;
29902;SDS011;30288;50.514;9.678;2024-03-02T10:28:54;17.55;;;12.40;;
29902;SDS011;30288;50.514;9.678;2024-03-02T10:31:01;17.13;;;11.77;;
29902;SDS011;30288;50.514;9.678;2024-03-02T10:33:09;15.43;;;10.63;;
29902;SDS011;30288;50.514;9.678;2024-03-02T10:35:14;16.40;;;10.63;;
29902;SDS011;30288;50.514;9.678;2024-03-02T10:37:18;16.60;;;10.40;;
29902;SDS011;30288;50.514;9.678;2024-03-02T10:39:25;13.23;;;9.13;;
29902;SDS011;30288;50.514;9.678;2024-03-02T10:41:36;12.77;;;9.32;;
29902;SDS011;30288;50.514;9.678;2024-03-02T10:43:42;13.85;;;9.50;;
29902;SDS011;30288;50.514;9.678;2024-03-02T10:45:51;13.68;;;9.85;;
29902;SDS011;30288;50.514;9.678;2024-03-02T10:48:03;14.73;;;9.45;;
29902;SDS011;30288;50.514;9.678;2024-03-02T10:50:11;12.82;;;8.88;;
29902;SDS011;30288;50.514;9.678;2024-03-02T10:52:17;12.30;;;9.10;;
29902;SDS011;30288;50.514;9.678;2024-03-02T10:54:24;13.18;;;8.73;;
29902;SDS011;30288;50.514;9.678;2024-03-02T10:56:32;15.55;;;9.32;;
29902;SDS011;30288;50.514;9.678;2024-03-02T10:58:40;16.15;;;10.00;;
29902;SDS011;30288;50.514;9.678;2024-03-02T11:00:47;11.40;;;8.00;;
29902;SDS011;30288;50.514;9.678;2024-03-02T11:02:50;13.77;;;8.23;;
29902;SDS011;30288;50.514;9.678;2024-03-02T11:05:00;11.15;;;7.50;;
29902;SDS011;30288;50.514;9.678;2024-03-02T11:07:11;10.98;;;7.20;;
29902;SDS011;30288;50.514;9.678;2024-03-02T11:09:19;11.30;;;7.53;;
29902;SDS011;30288;50.514;9.678;2024-03-02T11:11:32;11.95;;;7.13;;
29902;SDS011;30288;50.514;9.678;2024-03-02T11:13:49;12.40;;;6.15;;
29902;SDS011;30288;50.514;9.678;2024-03-02T11:15:59;10.30;;;5.55;;
29902;SDS011;30288;50.514;9.678;2024-03-02T11:18:11;9.32;;;5.45;;
29902;SDS011;30288;50.514;9.678;2024-03-02T11:20:19;13.25;;;6.20;;
29902;SDS011;30288;50.514;9.678;2024-03-02T11:22:26;10.80;;;6.57;;
29902;SDS011;30288;50.514;9.678;2024-03-02T11:24:32;10.35;;;6.22;;
29902;SDS011;30288;50.514;9.678;2024-03-02T11:26:41;8.82;;;5.18;;
29902;SDS011;30288;50.514;9.678;2024-03-02T11:28:47;8.00;;;4.88;;
29902;SDS011;30288;50.514;9.678;2024-03-02T11:30:54;8.88;;;5.05;;
29902;SDS011;30288;50.514;9.678;2024-03-02T11:33:03;9.30;;;4.80;;
29902;SDS011;30288;50.514;9.678;2024-03-02T11:35:08;8.48;;;4.95;;
29902;SDS011;30288;50.514;9.678;2024-03-02T11:37:13;8.35;;;4.25;;
29902;SDS011;30288;50.514;9.678;2024-03-02T11:39:20;6.57;;;4.05;;
29902;SDS011;30288;50.514;9.678;2024-03-02T11:41:25;6.85;;;4.13;;
29902;SDS011;30288;50.514;9.678;2024-03-02T11:43:33;7.57;;;3.53;;
29902;SDS011;30288;50.514;9.678;2024-03-02T11:45:44;6.90;;;3.30;;
29902;SDS011;30288;50.514;9.678;2024-03-02T11:47:49;5.90;;;3.20;;
29902;SDS011;30288;50.514;9.678;2024-03-02T11:49:56;7.40;;;3.40;;
29902;SDS011;30288;50.514;9.678;2024-03-02T11:52:10;7.25;;;3.42;;
29902;SDS011;30288;50.514;9.678;2024-03-02T11:54:18;7.03;;;4.00;;
29902;SDS011;30288;50.514;9.678;2024-03-02T11:56:22;7.25;;;3.78;;
29902;SDS011;30288;50.514;9.678;2024-03-02T11:58:29;5.82;;;3.20;;
29902;SDS011;30288;50.514;9.678;2024-03-02T12:00:38;5.90;;;3.00;;
29902;SDS011;30288;50.514;9.678;2024-03-02T12:02:44;6.22;;;2.65;;
29902;SDS011;30288;50.514;9.678;2024-03-02T12:04:52;4.50;;;2.38;;
29902;SDS011;30288;50.514;9.678;2024-03-02T12:06:57;5.38;;;2.50;;
29902;SDS011;30288;50.514;9.678;2024-03-02T12:09:04;8.50;;;2.75;;
29902;SDS011;30288;50.514;9.678;2024-03-02T12:11:13;7.40;;;2.75;;
29902;SDS011;30288;50.514;9.678;2024-03-02T12:13:19;5.18;;;2.50;;
29902;SDS011;30288;50.514;9.678;2024-03-02T12:15:22;4.97;;;2.65;;
29902;SDS011;30288;50.514;9.678;2024-03-02T12:17:33;4.75;;;2.17;;
29902;SDS011;30288;50.514;9.678;2024-03-02T12:19:39;4.28;;;2.08;;
29902;SDS011;30288;50.514;9.678;2024-03-02T12:21:45;4.55;;;2.25;;
29902;SDS011;30288;50.514;9.678;2024-03-02T12:23:51;7.80;;;2.33;;
29902;SDS011;30288;50.514;9.678;2024-03-02T12:25:56;4.70;;;2.35;;
29902;SDS011;30288;50.514;9.678;2024-03-02T12:28:03;4.78;;;2.03;;
29902;SDS011;30288;50.514;9.678;2024-03-02T12:30:11;5.75;;;2.70;;
29902;SDS011;30288;50.514;9.678;2024-03-02T12:32:16;5.22;;;2.63;;
29902;SDS011;30288;50.514;9.678;2024-03-02T12:34:24;5.97;;;2.58;;